Time;durP1;ratioP1;P1;durP2;ratioP2;P2;SDS_P1;SDS_P2;PMS_P1;PMS_P2;Temp;Humidity;BMP_temperature;BMP_pressure;BME280_temperature;BME280_humidity;BME280_pressure;Samples;Min_cycle;Max_cycle;Signal;HPM_P1;HPM_P2
2022/10/09 00:01:43;;;;;;;11.40;7.87;;;10.60;36.40;;;;;;5002325;28;20484;-74
2022/10/09 00:04:11;;;;;;;13.37;8.00;;;10.60;36.30;;;;;;4999974;28;20455;-73
2022/10/09 00:06:38;;;;;;;14.33;9.23;;;10.60;36.20;;;;;;5004337;28;20460;-73
2022/10/09 00:09:05;;;;;;;12.63;8.53;;;10.60;36.10;;;;;;4995988;28;21079;-74
2022/10/09 00:11:34;;;;;;;10.47;7.17;;;10.60;36.00;;;;;;5004166;28;21247;-74
2022/10/09 00:14:01;;;;;;;16.93;7.40;;;10.50;36.00;;;;;;5001481;28;20995;-74
2022/10/09 00:16:28;;;;;;;12.30;6.73;;;10.50;36.00;;;;;;4995099;28;20465;-73
2022/10/09 00:18:55;;;;;;;10.77;6.90;;;10.40;35.80;;;;;;5000961;28;20476;-73
2022/10/09 00:21:26;;;;;;;13.00;6.30;;;10.40;35.80;;;;;;4995924;28;20467;-73
2022/10/09 00:23:55;;;;;;;10.53;6.83;;;10.30;35.80;;;;;;4994352;28;20474;-74
2022/10/09 00:26:22;;;;;;;10.87;6.23;;;10.30;35.80;;;;;;5001389;28;20459;-74
2022/10/09 00:28:49;;;;;;;10.90;6.63;;;10.20;35.70;;;;;;4997453;28;20476;-73
2022/10/09 00:31:16;;;;;;;10.97;6.97;;;10.20;35.80;;;;;;4995841;28;20495;-73
2022/10/09 00:33:44;;;;;;;9.50;6.70;;;10.10;35.90;;;;;;5001558;28;20479;-73
2022/10/09 00:36:13;;;;;;;8.60;5.80;;;10.10;35.90;;;;;;4997882;28;20456;-73
2022/10/09 00:38:42;;;;;;;12.37;6.50;;;10.00;35.90;;;;;;4995055;28;20455;-73
2022/10/09 00:41:12;;;;;;;12.10;6.17;;;10.00;36.00;;;;;;4997462;28;20455;-73
2022/10/09 00:43:43;;;;;;;11.73;6.80;;;9.90;36.10;;;;;;5001445;28;20467;-73
2022/10/09 00:46:23;;;;;;;13.10;7.03;;;9.90;36.10;;;;;;4999348;28;20492;-73
2022/10/09 00:48:58;;;;;;;13.80;7.00;;;9.90;36.30;;;;;;5000450;28;20498;-73
2022/10/09 00:51:25;;;;;;;10.00;5.70;;;9.80;36.30;;;;;;5006692;28;20533;-74
2022/10/09 00:53:53;;;;;;;9.10;6.27;;;9.70;36.30;;;;;;5000620;28;20481;-73
2022/10/09 00:56:20;;;;;;;11.13;6.37;;;9.70;36.40;;;;;;4997553;28;21121;-72
2022/10/09 00:58:51;;;;;;;12.90;7.77;;;9.60;36.50;;;;;;5002195;28;20499;-73
2022/10/09 01:01:18;;;;;;;13.10;6.73;;;9.60;36.60;;;;;;4995024;28;20473;-73
2022/10/09 01:03:45;;;;;;;11.87;5.93;;;9.60;36.60;;;;;;4999017;28;20458;-72
2022/10/09 01:06:18;;;;;;;8.83;6.20;;;9.50;36.90;;;;;;5001200;28;21046;-73
2022/10/09 01:08:51;;;;;;;15.33;7.20;;;9.50;36.90;;;;;;4999309;28;20547;-73
2022/10/09 01:11:31;;;;;;;8.83;5.83;;;9.50;36.90;;;;;;4994567;28;20475;-74
2022/10/09 01:14:04;;;;;;;12.40;5.90;;;9.40;36.90;;;;;;4998289;28;20485;-73
2022/10/09 01:16:35;;;;;;;12.37;6.50;;;9.40;37.00;;;;;;4998441;28;20475;-73
2022/10/09 01:19:12;;;;;;;12.70;5.80;;;9.30;37.00;;;;;;4993218;28;20481;-75
2022/10/09 01:21:42;;;;;;;9.07;6.13;;;9.20;37.20;;;;;;5007206;28;21263;-74
2022/10/09 01:24:23;;;;;;;10.20;5.87;;;9.20;37.20;;;;;;5005552;28;20448;-73
2022/10/09 01:27:05;;;;;;;14.80;6.73;;;9.10;37.20;;;;;;5000586;28;20460;-74
2022/10/09 01:29:37;;;;;;;11.30;6.03;;;9.10;37.40;;;;;;5004181;28;20562;-73
2022/10/09 01:32:05;;;;;;;10.43;7.40;;;9.10;37.40;;;;;;5005977;28;20476;-72
2022/10/09 01:34:33;;;;;;;11.30;7.40;;;9.00;37.40;;;;;;4993763;28;20493;-74
2022/10/09 01:37:01;;;;;;;14.53;8.57;;;9.00;37.50;;;;;;5001681;28;20452;-75
2022/10/09 01:39:30;;;;;;;16.60;9.20;;;8.90;37.60;;;;;;5005223;28;20480;-73
2022/10/09 01:41:58;;;;;;;13.13;8.47;;;8.90;37.80;;;;;;4999903;28;20460;-73
2022/10/09 01:44:26;;;;;;;12.50;8.80;;;8.90;38.10;;;;;;4998701;28;20465;-74
2022/10/09 01:46:53;;;;;;;13.90;9.27;;;8.90;38.10;;;;;;5006891;28;20467;-74
2022/10/09 01:49:41;;;;;;;21.37;10.03;;;8.90;38.10;;;;;;5006838;28;20491;-75
2022/10/09 01:52:18;;;;;;;17.50;9.63;;;8.90;38.40;;;;;;4997666;28;20464;-75
2022/10/09 01:54:56;;;;;;;13.40;9.73;;;8.90;38.50;;;;;;4993087;28;20479;-74
2022/10/09 01:57:29;;;;;;;10.57;8.53;;;8.90;38.50;;;;;;5004413;28;20471;-74
2022/10/09 01:59:59;;;;;;;11.90;7.83;;;8.90;38.50;;;;;;5004608;28;20480;-73
2022/10/09 02:02:27;;;;;;;8.50;6.60;;;8.90;38.50;;;;;;4996914;28;20484;-74
2022/10/09 02:04:54;;;;;;;12.23;7.10;;;8.90;38.40;;;;;;4991528;28;20452;-75
2022/10/09 02:07:23;;;;;;;15.80;7.53;;;8.90;38.30;;;;;;4995107;28;20467;-73
2022/10/09 02:09:50;;;;;;;17.10;7.67;;;8.90;38.30;;;;;;4997700;28;20495;-74
2022/10/09 02:12:19;;;;;;;8.77;7.40;;;8.90;38.20;;;;;;4990630;28;20460;-73
2022/10/09 02:14:48;;;;;;;10.50;7.20;;;8.90;38.20;;;;;;4996021;28;21027;-73
2022/10/09 02:17:20;;;;;;;9.70;7.07;;;8.90;38.20;;;;;;4998461;28;20956;-74
2022/10/09 02:19:51;;;;;;;15.90;7.43;;;8.90;38.20;;;;;;4999259;28;20487;-73
2022/10/09 02:22:20;;;;;;;10.67;7.40;;;8.90;38.20;;;;;;5006940;28;20467;-73
2022/10/09 02:24:47;;;;;;;25.33;7.43;;;8.90;38.40;;;;;;5000593;28;20460;-74
2022/10/09 02:27:15;;;;;;;13.17;7.73;;;8.90;38.40;;;;;;4995596;28;20682;-73
2022/10/09 02:29:43;;;;;;;10.00;7.13;;;8.80;38.90;;;;;;5000132;28;20489;-74
2022/10/09 02:32:11;;;;;;;11.70;7.80;;;8.80;38.30;;;;;;4997346;28;21008;-74
2022/10/09 02:34:38;;;;;;;10.77;7.53;;;8.80;38.20;;;;;;5001432;28;20505;-74
2022/10/09 02:37:06;;;;;;;19.43;8.67;;;8.80;38.20;;;;;;4997356;28;20479;-74
2022/10/09 02:39:33;;;;;;;15.00;6.50;;;8.80;38.40;;;;;;5000590;28;20484;-74
2022/10/09 02:42:00;;;;;;;15.10;8.30;;;8.80;38.30;;;;;;4996383;28;20467;-74
2022/10/09 02:44:27;;;;;;;42.23;7.87;;;8.80;38.30;;;;;;4997370;28;20456;-74
2022/10/09 02:46:54;;;;;;;9.67;7.00;;;8.80;38.40;;;;;;4994906;28;20466;-74
2022/10/09 02:49:22;;;;;;;13.43;7.43;;;8.80;38.50;;;;;;5002837;28;20483;-73
2022/10/09 02:51:48;;;;;;;14.20;7.27;;;8.70;38.60;;;;;;5000258;28;20456;-74
2022/10/09 02:54:15;;;;;;;14.57;8.30;;;8.70;38.60;;;;;;4999373;28;20475;-73
2022/10/09 02:56:42;;;;;;;15.73;7.30;;;8.70;38.70;;;;;;5001720;28;20479;-73
2022/10/09 02:59:09;;;;;;;33.77;9.17;;;8.70;38.80;;;;;;4995298;28;20483;-73
2022/10/09 03:01:36;;;;;;;14.83;7.13;;;8.70;38.70;;;;;;5003562;28;21119;-73
2022/10/09 03:04:03;;;;;;;13.37;7.90;;;8.70;38.80;;;;;;5001397;28;20558;-74
2022/10/09 03:06:31;;;;;;;26.37;7.63;;;8.70;38.80;;;;;;5000468;28;20470;-74
2022/10/09 03:08:58;;;;;;;15.80;7.83;;;8.70;38.90;;;;;;5002529;28;20537;-73
2022/10/09 03:11:26;;;;;;;11.30;7.03;;;8.70;38.80;;;;;;4994466;28;20460;-74
2022/10/09 03:13:53;;;;;;;21.83;7.33;;;8.70;38.90;;;;;;5004537;28;20491;-74
2022/10/09 03:16:22;;;;;;;13.33;8.10;;;8.70;39.00;;;;;;4997622;28;20464;-75
2022/10/09 03:18:50;;;;;;;11.53;7.53;;;8.70;39.10;;;;;;4995558;28;20561;-74
2022/10/09 03:21:20;;;;;;;21.53;7.93;;;8.70;39.20;;;;;;5001242;28;20471;-74
2022/10/09 03:23:49;;;;;;;18.00;7.80;;;8.70;39.30;;;;;;4995867;28;20607;-74
2022/10/09 03:26:17;;;;;;;23.27;9.30;;;8.70;39.30;;;;;;4999674;28;20460;-74
2022/10/09 03:28:47;;;;;;;16.57;9.50;;;8.70;39.40;;;;;;5000360;28;20459;-75
2022/10/09 03:31:15;;;;;;;17.80;9.60;;;8.80;39.30;;;;;;5003979;28;20475;-76
2022/10/09 03:33:42;;;;;;;17.27;9.37;;;8.80;39.40;;;;;;4997472;28;20932;-74
2022/10/09 03:36:09;;;;;;;18.80;8.90;;;8.80;39.40;;;;;;5001805;28;20460;-74
2022/10/09 03:38:36;;;;;;;21.63;10.13;;;8.80;39.50;;;;;;5004886;28;21215;-74
2022/10/09 03:41:06;;;;;;;16.60;11.00;;;8.80;39.70;;;;;;4995623;28;20964;-74
2022/10/09 03:43:33;;;;;;;16.73;9.70;;;8.80;39.70;;;;;;5003716;28;20452;-74
2022/10/09 03:46:03;;;;;;;16.50;9.43;;;8.80;39.80;;;;;;5000220;28;20464;-74
2022/10/09 03:48:30;;;;;;;27.23;9.67;;;8.80;39.90;;;;;;5002973;28;20464;-74
2022/10/09 03:50:57;;;;;;;26.47;9.10;;;8.80;39.80;;;;;;5001481;28;20463;-73
2022/10/09 03:53:23;;;;;;;16.13;9.87;;;8.80;39.80;;;;;;5004544;28;20460;-74
2022/10/09 03:55:50;;;;;;;18.47;10.73;;;8.80;39.80;;;;;;4997487;28;20461;-74
2022/10/09 03:58:18;;;;;;;16.40;7.80;;;8.80;39.80;;;;;;5003700;28;21027;-74
2022/10/09 04:00:45;;;;;;;21.37;9.50;;;8.80;39.70;;;;;;5001285;28;21222;-74
2022/10/09 04:03:12;;;;;;;34.73;9.30;;;8.80;39.70;;;;;;5005298;28;20490;-75
2022/10/09 04:05:39;;;;;;;24.83;9.13;;;8.70;39.60;;;;;;4999057;28;20467;-74
2022/10/09 04:08:05;;;;;;;15.33;9.00;;;8.70;39.80;;;;;;4999640;28;20494;-74
2022/10/09 04:10:32;;;;;;;28.90;9.63;;;8.70;39.80;;;;;;5001728;28;20754;-73
2022/10/09 04:12:59;;;;;;;16.13;8.23;;;8.70;39.90;;;;;;4998177;28;20465;-74
2022/10/09 04:15:27;;;;;;;23.23;8.00;;;8.70;39.80;;;;;;4996513;28;20921;-74
2022/10/09 04:17:54;;;;;;;20.50;8.10;;;8.70;39.80;;;;;;5002003;28;20460;-74
2022/10/09 04:20:21;;;;;;;13.77;8.57;;;8.70;39.80;;;;;;5003419;28;20479;-74
2022/10/09 04:22:48;;;;;;;18.10;8.73;;;8.70;39.70;;;;;;5001769;28;20459;-76
2022/10/09 04:25:15;;;;;;;22.10;8.63;;;8.70;39.60;;;;;;4996790;28;20459;-73
2022/10/09 04:27:41;;;;;;;16.87;8.03;;;8.60;39.60;;;;;;5004004;28;20459;-75
2022/10/09 04:30:09;;;;;;;30.17;8.83;;;8.60;39.60;;;;;;5005451;28;20492;-74
2022/10/09 04:32:38;;;;;;;45.33;9.53;;;8.60;39.50;;;;;;5000875;28;20475;-74
2022/10/09 04:35:05;;;;;;;12.73;7.60;;;8.60;39.50;;;;;;5004015;28;20476;-74
2022/10/09 04:37:32;;;;;;;20.27;8.50;;;8.60;39.50;;;;;;5006623;28;21028;-74
2022/10/09 04:39:58;;;;;;;12.50;7.47;;;8.60;39.50;;;;;;5004800;28;21007;-74
2022/10/09 04:42:25;;;;;;;25.93;8.07;;;8.60;39.60;;;;;;5004108;28;20468;-74
2022/10/09 04:44:52;;;;;;;15.97;8.43;;;8.60;39.60;;;;;;5000868;28;20456;-74
2022/10/09 04:47:18;;;;;;;12.00;7.07;;;8.60;39.70;;;;;;5000507;28;20460;-74
2022/10/09 04:49:47;;;;;;;24.90;7.87;;;8.60;39.70;;;;;;4998212;28;20993;-74
2022/10/09 04:52:14;;;;;;;23.17;7.90;;;8.60;39.70;;;;;;4998991;28;20461;-74
2022/10/09 04:54:40;;;;;;;11.30;8.30;;;8.60;39.90;;;;;;5004802;28;20480;-74
2022/10/09 04:57:07;;;;;;;18.40;8.03;;;8.60;39.80;;;;;;5007471;28;20487;-73
2022/10/09 04:59:34;;;;;;;12.77;7.87;;;8.60;39.80;;;;;;5003960;28;20580;-73
2022/10/09 05:02:01;;;;;;;14.00;7.60;;;8.60;39.70;;;;;;5006432;28;20467;-74
2022/10/09 05:04:28;;;;;;;25.60;8.93;;;8.60;39.70;;;;;;5001448;28;20464;-73
2022/10/09 05:06:56;;;;;;;24.97;8.20;;;8.60;39.70;;;;;;5003740;28;20460;-74
2022/10/09 05:09:22;;;;;;;21.40;8.17;;;8.60;39.70;;;;;;5001995;28;20499;-74
2022/10/09 05:11:49;;;;;;;19.20;8.33;;;8.60;39.60;;;;;;4998921;28;20467;-74
2022/10/09 05:14:16;;;;;;;18.20;7.90;;;8.60;39.50;;;;;;5000074;28;20484;-75
2022/10/09 05:16:43;;;;;;;17.97;7.67;;;8.60;39.50;;;;;;4998822;28;20502;-74
2022/10/09 05:19:09;;;;;;;10.20;7.50;;;8.60;39.40;;;;;;5001709;28;20476;-73
2022/10/09 05:21:36;;;;;;;31.57;8.10;;;8.60;39.40;;;;;;4999624;28;20475;-75
2022/10/09 05:24:04;;;;;;;12.43;7.33;;;8.60;39.50;;;;;;4999613;28;20464;-74
2022/10/09 05:26:31;;;;;;;17.03;7.80;;;8.60;40.00;;;;;;5007626;28;20460;-74
2022/10/09 05:28:58;;;;;;;25.97;8.13;;;8.60;39.30;;;;;;4999737;28;20873;-73
2022/10/09 05:31:26;;;;;;;13.17;8.83;;;8.60;39.30;;;;;;5000094;28;20476;-75
2022/10/09 05:33:54;;;;;;;22.47;8.43;;;8.60;39.20;;;;;;5003702;28;20495;-73
2022/10/09 05:36:21;;;;;;;28.13;8.43;;;8.60;39.20;;;;;;5002269;28;20472;-75
2022/10/09 05:38:48;;;;;;;16.20;8.47;;;8.60;39.20;;;;;;5003108;28;21023;-75
2022/10/09 05:41:18;;;;;;;20.97;8.23;;;8.60;39.20;;;;;;4999294;28;20467;-74
2022/10/09 05:43:47;;;;;;;15.10;8.73;;;8.60;39.10;;;;;;5002792;28;20472;-73
2022/10/09 05:46:16;;;;;;;26.97;9.57;;;8.60;39.10;;;;;;4995610;28;20459;-73
2022/10/09 05:48:45;;;;;;;19.70;8.63;;;8.60;39.20;;;;;;5005727;28;20465;-74
2022/10/09 05:51:14;;;;;;;22.60;9.10;;;8.60;39.10;;;;;;5000178;28;20452;-74
2022/10/09 05:53:43;;;;;;;18.30;9.33;;;8.70;39.20;;;;;;5007104;28;20468;-74
2022/10/09 05:56:16;;;;;;;16.87;9.00;;;8.70;39.30;;;;;;5004884;28;20478;-74
2022/10/09 05:58:44;;;;;;;12.67;10.00;;;8.70;39.30;;;;;;4998126;28;20472;-74
2022/10/09 06:01:11;;;;;;;15.27;8.93;;;8.70;39.30;;;;;;4997903;28;20488;-74
2022/10/09 06:03:38;;;;;;;17.30;9.57;;;8.80;39.20;;;;;;5007162;28;20467;-73
2022/10/09 06:06:07;;;;;;;11.33;8.60;;;8.80;39.30;;;;;;4999552;28;21688;-74
2022/10/09 06:08:35;;;;;;;14.13;8.23;;;8.80;39.20;;;;;;5003549;28;20566;-74
2022/10/09 06:11:10;;;;;;;19.00;9.27;;;8.80;39.30;;;;;;5008490;28;20464;-74
2022/10/09 06:13:38;;;;;;;14.47;9.00;;;8.80;39.20;;;;;;5004835;28;20455;-73
2022/10/09 06:16:05;;;;;;;28.13;8.63;;;8.90;39.10;;;;;;5001148;28;20487;-74
2022/10/09 06:18:33;;;;;;;36.67;10.10;;;8.90;39.10;;;;;;4998363;28;20461;-74
2022/10/09 06:21:01;;;;;;;15.50;9.07;;;8.90;39.10;;;;;;5000740;28;20464;-74
2022/10/09 06:23:30;;;;;;;13.43;8.73;;;8.90;39.00;;;;;;5001586;28;20468;-74
2022/10/09 06:26:00;;;;;;;13.50;9.60;;;9.00;39.00;;;;;;4997655;28;20461;-74
2022/10/09 06:28:27;;;;;;;27.30;9.10;;;9.00;39.00;;;;;;5003425;28;20459;-73
2022/10/09 06:31:01;;;;;;;30.53;9.73;;;9.10;39.00;;;;;;4997152;28;20542;-74
2022/10/09 06:33:30;;;;;;;20.20;8.50;;;9.10;39.10;;;;;;5005755;28;20459;-74
2022/10/09 06:35:59;;;;;;;12.73;10.33;;;9.10;39.00;;;;;;5001604;28;20476;-74
2022/10/09 06:38:26;;;;;;;17.60;9.60;;;9.20;38.90;;;;;;5003217;28;20463;-73
2022/10/09 06:40:53;;;;;;;14.07;9.37;;;9.30;38.90;;;;;;5000235;28;20476;-73
2022/10/09 06:43:20;;;;;;;13.50;10.00;;;9.40;38.70;;;;;;4997040;28;20468;-74
2022/10/09 06:45:47;;;;;;;11.20;8.50;;;9.50;38.70;;;;;;4995300;28;20456;-74
2022/10/09 06:48:15;;;;;;;24.53;11.53;;;9.60;38.50;;;;;;4995897;28;20467;-74
2022/10/09 06:50:41;;;;;;;40.17;20.80;;;9.60;38.30;;;;;;4998313;28;20490;-74
2022/10/09 06:53:08;;;;;;;27.40;13.10;;;9.70;38.20;;;;;;4998074;28;20469;-75
2022/10/09 06:55:35;;;;;;;14.90;11.10;;;9.80;38.00;;;;;;4994785;28;20515;-74
2022/10/09 06:58:02;;;;;;;15.00;10.33;;;9.80;37.80;;;;;;4993958;28;20837;-75
2022/10/09 07:00:29;;;;;;;16.30;11.07;;;9.90;37.80;;;;;;4994734;28;20560;-73
2022/10/09 07:02:56;;;;;;;15.33;10.37;;;10.00;37.90;;;;;;5001627;28;20494;-75
2022/10/09 07:05:24;;;;;;;17.13;11.47;;;10.10;37.90;;;;;;4993816;28;20457;-71
2022/10/09 07:07:51;;;;;;;19.93;11.30;;;10.20;37.70;;;;;;4996380;28;20457;-70
2022/10/09 07:10:17;;;;;;;17.83;11.73;;;10.30;37.40;;;;;;4997712;28;20475;-69
2022/10/09 07:12:44;;;;;;;15.27;10.27;;;10.30;37.20;;;;;;4999956;28;20467;-67
2022/10/09 07:15:11;;;;;;;13.57;8.60;;;10.30;36.80;;;;;;5001761;28;21090;-68
2022/10/09 07:17:38;;;;;;;17.67;11.10;;;10.30;36.90;;;;;;5003625;28;20467;-69
2022/10/09 07:20:05;;;;;;;18.70;10.20;;;10.40;36.80;;;;;;4995127;28;20484;-69
2022/10/09 07:22:34;;;;;;;14.10;9.20;;;10.50;37.00;;;;;;5005593;28;20895;-68
2022/10/09 07:25:00;;;;;;;13.93;9.43;;;10.60;36.60;;;;;;4998410;28;20457;-70
2022/10/09 07:27:27;;;;;;;14.00;9.30;;;10.70;36.40;;;;;;5001089;28;20460;-68
2022/10/09 07:29:54;;;;;;;12.33;9.50;;;10.80;36.00;;;;;;5005589;28;20475;-69
2022/10/09 07:32:21;;;;;;;13.03;8.73;;;10.80;36.00;;;;;;4996209;28;20853;-69
2022/10/09 07:34:47;;;;;;;13.00;8.77;;;10.80;35.90;;;;;;4999834;28;20494;-69
2022/10/09 07:37:14;;;;;;;14.67;8.97;;;10.80;35.80;;;;;;5000424;28;20467;-71
2022/10/09 07:39:42;;;;;;;16.67;10.17;;;10.90;35.90;;;;;;4995266;28;21008;-69
2022/10/09 07:42:09;;;;;;;14.50;10.60;;;11.00;35.90;;;;;;5003686;28;20464;-71
2022/10/09 07:44:36;;;;;;;16.27;11.53;;;11.00;35.90;;;;;;4996283;28;20468;-74
2022/10/09 07:47:02;;;;;;;17.73;11.40;;;11.20;35.70;;;;;;5008737;28;20467;-72
2022/10/09 07:49:29;;;;;;;17.83;10.77;;;11.30;35.40;;;;;;4999874;28;20484;-76
2022/10/09 07:51:56;;;;;;;13.43;9.13;;;11.60;35.40;;;;;;5001420;28;20456;-79
2022/10/09 07:54:23;;;;;;;17.63;11.20;;;11.70;34.70;;;;;;5007981;28;20539;-82
2022/10/09 07:56:51;;;;;;;13.97;10.40;;;11.80;34.60;;;;;;5005476;28;20503;-76
2022/10/09 07:59:17;;;;;;;17.33;10.53;;;11.90;34.40;;;;;;5009149;28;20480;-79
2022/10/09 08:01:44;;;;;;;12.50;9.87;;;12.10;34.20;;;;;;5006267;28;20506;-79
2022/10/09 08:04:11;;;;;;;14.27;10.00;;;12.30;34.00;;;;;;5007385;28;20960;-76
2022/10/09 08:06:38;;;;;;;13.77;9.77;;;12.60;33.00;;;;;;5000353;28;20472;-76
2022/10/09 08:09:07;;;;;;;14.40;9.80;;;12.80;32.30;;;;;;4999637;28;20491;-64
2022/10/09 08:11:34;;;;;;;14.73;9.90;;;13.00;31.80;;;;;;5001039;28;20496;-75
2022/10/09 08:14:02;;;;;;;14.20;10.10;;;13.20;31.50;;;;;;5004195;28;20486;-77
2022/10/09 08:16:31;;;;;;;14.33;8.27;;;13.30;31.10;;;;;;5003650;28;20494;-76
2022/10/09 08:19:00;;;;;;;11.30;8.60;;;13.80;31.00;;;;;;4995319;28;20483;-76
2022/10/09 08:21:27;;;;;;;12.37;8.37;;;14.40;29.40;;;;;;5001452;28;20464;-76
2022/10/09 08:23:55;;;;;;;13.93;8.50;;;15.00;28.10;;;;;;4995446;28;20460;-77
2022/10/09 08:26:24;;;;;;;9.70;8.00;;;15.90;25.30;;;;;;5002892;28;20462;-71
2022/10/09 08:28:53;;;;;;;12.37;7.93;;;17.00;23.60;;;;;;5001784;28;20488;-71
2022/10/09 08:31:22;;;;;;;11.73;6.63;;;17.90;19.80;;;;;;5004078;28;20587;-72
2022/10/09 08:33:52;;;;;;;11.57;6.93;;;18.00;18.40;;;;;;5008076;28;20459;-72
2022/10/09 08:36:19;;;;;;;10.87;6.50;;;18.20;17.90;;;;;;5001328;28;20480;-71
2022/10/09 08:38:46;;;;;;;8.50;5.90;;;18.70;17.50;;;;;;5003403;28;20464;-72
2022/10/09 08:41:21;;;;;;;12.57;6.03;;;19.50;16.00;;;;;;4996870;28;20466;-72
2022/10/09 08:43:52;;;;;;;11.27;5.77;;;20.70;14.60;;;;;;5003256;28;21060;-71
2022/10/09 08:46:23;;;;;;;9.57;5.60;;;22.20;11.50;;;;;;4999556;28;20456;-71
2022/10/09 08:48:51;;;;;;;7.97;6.00;;;23.90;8.70;;;;;;4998949;28;20492;-75
2022/10/09 08:51:25;;;;;;;8.80;5.40;;;25.70;5.60;;;;;;4995927;28;20465;-74
2022/10/09 08:53:58;;;;;;;7.90;4.97;;;26.90;2.80;;;;;;4997198;28;20456;-75
2022/10/09 08:56:26;;;;;;;7.77;4.50;;;28.10;1.80;;;;;;4996954;28;20507;-79
2022/10/09 08:58:53;;;;;;;8.97;4.93;;;29.10;1.00;;;;;;5006776;28;20479;-73
2022/10/09 09:01:29;;;;;;;7.27;4.33;;;29.70;1.00;;;;;;4999515;28;20543;-74
2022/10/09 09:04:28;;;;;;;11.57;4.47;;;29.80;1.00;;;;;;4996336;28;20490;-72
2022/10/09 09:07:06;;;;;;;5.70;3.90;;;30.00;1.00;;;;;;5001979;28;20468;-73
2022/10/09 09:09:42;;;;;;;7.80;3.80;;;30.00;1.00;;;;;;5003188;28;20481;-73
2022/10/09 09:12:18;;;;;;;9.47;4.13;;;29.40;1.00;;;;;;4999819;28;20459;-72
2022/10/09 09:14:58;;;;;;;9.87;5.20;;;28.80;1.00;;;;;;4996917;28;20853;-72
2022/10/09 09:17:35;;;;;;;6.83;4.53;;;28.10;1.00;;;;;;5003648;28;20464;-71
2022/10/09 09:20:10;;;;;;;6.07;3.80;;;27.80;1.00;;;;;;5006270;28;20484;-74
2022/10/09 09:22:41;;;;;;;5.87;3.70;;;27.60;1.00;;;;;;4998621;28;20475;-74
2022/10/09 09:25:18;;;;;;;7.00;4.33;;;27.30;1.00;;;;;;5004646;28;20456;-74
2022/10/09 09:27:46;;;;;;;8.53;3.63;;;27.00;1.00;;;;;;5003345;28;20460;-76
2022/10/09 09:30:18;;;;;;;7.20;3.70;;;26.80;1.00;;;;;;5002988;28;20496;-69
2022/10/09 09:32:54;;;;;;;6.00;3.30;;;26.40;1.00;;;;;;4998765;28;20965;-69
2022/10/09 09:35:28;;;;;;;5.97;3.30;;;26.30;1.00;;;;;;5004872;28;20940;-75
2022/10/09 09:37:55;;;;;;;10.90;4.20;;;26.00;1.30;;;;;;4998734;28;20881;-69
2022/10/09 09:40:24;;;;;;;7.77;3.90;;;25.80;1.70;;;;;;4999236;28;20495;-71
2022/10/09 09:42:55;;;;;;;9.40;3.27;;;25.70;1.90;;;;;;5002780;28;20787;-67
2022/10/09 09:45:25;;;;;;;7.07;3.97;;;25.60;2.00;;;;;;5003717;28;21972;-69
2022/10/09 09:47:57;;;;;;;6.97;3.70;;;25.70;1.90;;;;;;5004104;28;20464;-71
2022/10/09 09:50:36;;;;;;;6.17;3.23;;;25.70;1.70;;;;;;5004066;28;20483;-71
2022/10/09 09:53:07;;;;;;;7.63;3.90;;;25.70;2.10;;;;;;4997560;28;20468;-73
2022/10/09 09:55:34;;;;;;;6.60;3.07;;;26.20;1.70;;;;;;5002522;28;20997;-73
2022/10/09 09:58:05;;;;;;;6.27;3.90;;;26.70;1.00;;;;;;5001504;28;20459;-72
2022/10/09 10:00:32;;;;;;;6.87;3.67;;;26.80;1.00;;;;;;5002741;28;20495;-71
2022/10/09 10:03:10;;;;;;;6.37;3.30;;;26.90;1.00;;;;;;4996186;28;20492;-71
2022/10/09 10:05:38;;;;;;;7.40;3.60;;;26.70;1.00;;;;;;4996520;28;20548;-73
2022/10/09 10:08:30;;;;;;;7.23;3.30;;;26.50;1.00;;;;;;4997753;28;20457;-72
2022/10/09 10:10:59;;;;;;;9.07;2.93;;;26.20;1.20;;;;;;4980389;28;20460;-68
2022/10/09 10:13:34;;;;;;;8.63;3.20;;;26.40;1.10;;;;;;5001238;28;20464;-70
2022/10/09 10:16:01;;;;;;;8.00;2.83;;;26.30;1.00;;;;;;4995680;28;20476;-63
2022/10/09 10:18:36;;;;;;;8.83;2.60;;;26.00;1.10;;;;;;4996696;28;20547;-71
2022/10/09 10:21:09;;;;;;;9.60;2.50;;;25.60;1.70;;;;;;4996513;28;20486;-70
2022/10/09 10:23:40;;;;;;;5.60;2.90;;;25.30;2.70;;;;;;5002146;28;20460;-81
2022/10/09 10:26:14;;;;;;;4.50;1.93;;;24.80;2.80;;;;;;5000728;28;20457;-67
2022/10/09 10:28:49;;;;;;;5.07;2.17;;;24.30;3.90;;;;;;4998223;28;20463;-70
2022/10/09 10:31:28;;;;;;;5.63;2.17;;;23.70;4.10;;;;;;5000511;28;20486;-69
2022/10/09 10:33:57;;;;;;;6.40;2.60;;;23.50;4.90;;;;;;5004331;28;20466;-71
2022/10/09 10:36:27;;;;;;;6.13;3.23;;;23.30;4.50;;;;;;4997195;28;20480;-73
2022/10/09 10:39:02;;;;;;;7.37;2.13;;;23.30;4.70;;;;;;4996093;28;20488;-75
2022/10/09 10:41:32;;;;;;;5.50;2.30;;;22.90;3.80;;;;;;5001406;28;20456;-77
2022/10/09 10:44:07;;;;;;;6.03;2.60;;;22.60;5.10;;;;;;4999843;28;20808;-78
2022/10/09 10:46:42;;;;;;;4.90;1.90;;;22.40;5.70;;;;;;4999061;28;20543;-78
2022/10/09 10:49:11;;;;;;;5.30;1.97;;;22.30;5.40;;;;;;4993899;28;20484;-76
2022/10/09 10:51:56;;;;;;;5.90;2.30;;;22.20;6.00;;;;;;4998406;28;20464;-71
2022/10/09 10:54:33;;;;;;;6.07;2.00;;;22.30;6.20;;;;;;4999027;28;20465;-78
2022/10/09 10:57:15;;;;;;;7.60;2.67;;;22.30;6.10;;;;;;5003495;28;20483;-76
2022/10/09 10:59:53;;;;;;;5.23;2.30;;;22.20;5.70;;;;;;4998079;28;20479;-74
2022/10/09 11:02:43;;;;;;;7.90;2.67;;;21.80;5.90;;;;;;4999209;28;20473;-72
2022/10/09 11:05:25;;;;;;;5.20;2.47;;;21.50;6.20;;;;;;4997343;28;20464;-76
2022/10/09 11:08:05;;;;;;;5.70;2.00;;;21.10;7.40;;;;;;4998060;28;20514;-78
2022/10/09 11:10:37;;;;;;;4.77;1.90;;;20.80;7.30;;;;;;4999401;28;20996;-69
2022/10/09 11:13:11;;;;;;;6.20;2.03;;;20.50;6.90;;;;;;4997857;28;20961;-74
2022/10/09 11:15:51;;;;;;;9.57;3.43;;;20.10;8.10;;;;;;4998498;28;20467;-68
2022/10/09 11:18:29;;;;;;;6.03;2.00;;;20.10;9.30;;;;;;5000634;28;20576;-71
2022/10/09 11:21:13;;;;;;;5.33;1.90;;;20.20;9.20;;;;;;4998515;28;20471;-76
2022/10/09 11:23:53;;;;;;;6.70;2.17;;;20.00;8.40;;;;;;5003056;28;20460;-76
2022/10/09 11:26:28;;;;;;;8.03;2.50;;;19.90;9.50;;;;;;4996329;28;20460;-73
2022/10/09 11:29:02;;;;;;;5.60;2.33;;;19.90;10.20;;;;;;5006097;28;20863;-77
2022/10/09 11:31:35;;;;;;;5.73;1.60;;;20.00;10.20;;;;;;5000192;28;20481;-76
2022/10/09 11:34:09;;;;;;;4.57;1.97;;;19.90;8.70;;;;;;4999073;28;20841;-76
2022/10/09 11:36:40;;;;;;;6.03;2.10;;;19.60;8.90;;;;;;5006213;28;20483;-72
2022/10/09 11:39:13;;;;;;;5.07;1.70;;;19.20;9.20;;;;;;5002442;28;20500;-68
2022/10/09 11:41:43;;;;;;;6.27;1.83;;;19.00;10.20;;;;;;5010928;28;20456;-70
2022/10/09 11:44:32;;;;;;;7.10;1.97;;;18.80;11.20;;;;;;5006208;28;20543;-69
2022/10/09 11:49:46;;;;;;;5.63;2.30;;;18.50;11.60;;;;;;4995767;28;21685;-60
2022/10/09 11:52:24;;;;;;;6.13;2.00;;;18.30;12.50;;;;;;5003616;28;20482;-60
2022/10/09 11:54:50;;;;;;;7.10;2.43;;;18.20;12.10;;;;;;5008118;28;20459;-61
2022/10/09 11:57:27;;;;;;;5.30;2.20;;;18.10;12.70;;;;;;4999767;28;20491;-60
2022/10/09 12:00:05;;;;;;;5.40;2.27;;;18.00;12.10;;;;;;4995526;28;20464;-60
2022/10/09 12:02:32;;;;;;;5.90;2.23;;;17.90;12.70;;;;;;5003384;28;20476;-60
2022/10/09 12:04:59;;;;;;;9.87;2.73;;;17.80;13.30;;;;;;5000610;28;20464;-60
2022/10/09 12:07:38;;;;;;;7.07;2.67;;;17.80;14.00;;;;;;5002333;28;20486;-61
2022/10/09 12:10:07;;;;;;;6.00;3.10;;;17.80;14.70;;;;;;5005731;28;20479;-61
2022/10/09 12:12:37;;;;;;;4.80;2.40;;;17.90;14.30;;;;;;5006274;28;20642;-61
2022/10/09 12:15:13;;;;;;;5.40;2.37;;;18.00;14.30;;;;;;5009237;28;20782;-61
2022/10/09 12:17:48;;;;;;;6.10;2.17;;;18.10;14.60;;;;;;4998686;28;20584;-61
2022/10/09 12:20:20;;;;;;;5.50;2.33;;;18.20;14.10;;;;;;5004874;28;21078;-61
2022/10/09 12:22:52;;;;;;;7.83;2.67;;;18.20;13.60;;;;;;4995174;28;20875;-61
2022/10/09 12:25:25;;;;;;;7.50;3.00;;;18.10;13.60;;;;;;5002152;28;20638;-62
2022/10/09 12:27:54;;;;;;;8.07;2.40;;;17.90;14.20;;;;;;5005211;28;20475;-61
2022/10/09 12:30:24;;;;;;;6.40;2.30;;;17.90;14.30;;;;;;5005415;28;20464;-61
2022/10/09 12:32:56;;;;;;;6.50;2.43;;;17.90;14.30;;;;;;5003097;28;20471;-61
2022/10/09 12:35:31;;;;;;;6.90;2.63;;;17.90;14.10;;;;;;5001896;28;20464;-61
2022/10/09 12:37:59;;;;;;;6.57;2.53;;;17.80;14.20;;;;;;5004850;28;20851;-61
2022/10/09 12:40:28;;;;;;;5.47;2.90;;;17.70;14.20;;;;;;5005796;28;20468;-61
2022/10/09 12:42:57;;;;;;;8.63;3.23;;;17.50;14.60;;;;;;4998791;28;20468;-61
2022/10/09 12:45:26;;;;;;;6.80;2.73;;;17.40;15.10;;;;;;5004004;28;20468;-61
2022/10/09 12:47:54;;;;;;;7.20;2.60;;;17.20;15.10;;;;;;4998572;28;20492;-61
2022/10/09 12:50:24;;;;;;;5.37;2.90;;;17.10;15.90;;;;;;5003150;28;20480;-61
2022/10/09 12:52:53;;;;;;;7.10;2.77;;;17.10;16.50;;;;;;4997054;28;20550;-61
2022/10/09 12:55:27;;;;;;;5.63;2.47;;;17.10;16.40;;;;;;5004380;28;20468;-62
2022/10/09 12:57:56;;;;;;;6.20;2.67;;;17.00;16.30;;;;;;5003194;28;20493;-62
2022/10/09 13:00:22;;;;;;;6.63;2.50;;;17.00;16.90;;;;;;5000808;28;20590;-62
2022/10/09 13:02:49;;;;;;;6.10;2.17;;;17.00;16.90;;;;;;5000733;28;21016;-62